sensor_id;sensor_type;location;lat;lon;timestamp;P1;durP1;ratioP1;P2;durP2;ratioP2
29816;SDS011;16805;52.956;5.906;2024-02-28T00:26:26;19.48;;;10.75;;
29816;SDS011;16805;52.956;5.906;2024-02-28T00:29:25;19.42;;;11.10;;
29816;SDS011;16805;52.956;5.906;2024-02-28T00:32:40;24.45;;;11.38;;
29816;SDS011;16805;52.956;5.906;2024-02-28T00:35:48;19.00;;;9.02;;
29816;SDS011;16805;52.956;5.906;2024-02-28T00:38:49;14.38;;;9.57;;
29816;SDS011;16805;52.956;5.906;2024-02-28T00:41:53;16.33;;;9.98;;
29816;SDS011;16805;52.956;5.906;2024-02-28T00:45:30;15.60;;;9.85;;
29816;SDS011;16805;52.956;5.906;2024-02-28T00:52:14;22.70;;;10.27;;
29816;SDS011;16805;52.956;5.906;2024-02-28T00:58:33;16.58;;;10.18;;
29816;SDS011;16805;52.956;5.906;2024-02-28T01:12:11;20.20;;;9.35;;
29816;SDS011;16805;52.956;5.906;2024-02-28T01:21:52;17.17;;;8.67;;
29816;SDS011;16805;52.956;5.906;2024-02-28T01:24:46;16.58;;;9.93;;
29816;SDS011;16805;52.956;5.906;2024-02-28T01:41:53;19.65;;;8.52;;
29816;SDS011;16805;52.956;5.906;2024-02-28T01:44:50;17.33;;;10.60;;
29816;SDS011;16805;52.956;5.906;2024-02-28T01:48:10;18.83;;;11.05;;
29816;SDS011;16805;52.956;5.906;2024-02-28T01:51:34;22.45;;;11.68;;
29816;SDS011;16805;52.956;5.906;2024-02-28T01:54:53;18.73;;;10.70;;
29816;SDS011;16805;52.956;5.906;2024-02-28T02:00:49;17.90;;;11.00;;
29816;SDS011;16805;52.956;5.906;2024-02-28T02:04:14;25.52;;;12.43;;
29816;SDS011;16805;52.956;5.906;2024-02-28T02:10:30;21.55;;;10.18;;
29816;SDS011;16805;52.956;5.906;2024-02-28T02:13:55;19.50;;;10.23;;
29816;SDS011;16805;52.956;5.906;2024-02-28T02:20:33;24.90;;;12.10;;
29816;SDS011;16805;52.956;5.906;2024-02-28T02:23:57;25.53;;;12.13;;
29816;SDS011;16805;52.956;5.906;2024-02-28T02:31:05;22.92;;;11.45;;
29816;SDS011;16805;52.956;5.906;2024-02-28T02:34:31;19.55;;;10.98;;
29816;SDS011;16805;52.956;5.906;2024-02-28T02:45:14;18.00;;;10.43;;
29816;SDS011;16805;52.956;5.906;2024-02-28T02:48:32;20.95;;;10.40;;
29816;SDS011;16805;52.956;5.906;2024-02-28T03:01:28;19.95;;;8.30;;
29816;SDS011;16805;52.956;5.906;2024-02-28T03:04:36;21.02;;;9.23;;
29816;SDS011;16805;52.956;5.906;2024-02-28T03:14:37;23.60;;;11.23;;
29816;SDS011;16805;52.956;5.906;2024-02-28T03:17:50;24.42;;;13.10;;
29816;SDS011;16805;52.956;5.906;2024-02-28T03:20:56;20.15;;;10.63;;
29816;SDS011;16805;52.956;5.906;2024-02-28T03:31:33;18.27;;;10.50;;
29816;SDS011;16805;52.956;5.906;2024-02-28T03:35:14;21.45;;;9.63;;
29816;SDS011;16805;52.956;5.906;2024-02-28T03:42:01;25.52;;;10.50;;
29816;SDS011;16805;52.956;5.906;2024-02-28T03:55:12;21.13;;;10.57;;
29816;SDS011;16805;52.956;5.906;2024-02-28T03:58:12;20.63;;;11.73;;
29816;SDS011;16805;52.956;5.906;2024-02-28T04:01:40;27.02;;;13.07;;
29816;SDS011;16805;52.956;5.906;2024-02-28T04:04:27;17.48;;;11.15;;
29816;SDS011;16805;52.956;5.906;2024-02-28T04:07:17;22.85;;;10.88;;
29816;SDS011;16805;52.956;5.906;2024-02-28T04:10:19;31.88;;;12.75;;
29816;SDS011;16805;52.956;5.906;2024-02-28T04:12:50;28.08;;;13.40;;
29816;SDS011;16805;52.956;5.906;2024-02-28T04:15:23;29.05;;;12.45;;
29816;SDS011;16805;52.956;5.906;2024-02-28T04:18:29;25.92;;;11.73;;
29816;SDS011;16805;52.956;5.906;2024-02-28T04:24:48;26.23;;;11.10;;
29816;SDS011;16805;52.956;5.906;2024-02-28T04:27:58;27.90;;;12.77;;
29816;SDS011;16805;52.956;5.906;2024-02-28T04:34:14;22.45;;;10.98;;
29816;SDS011;16805;52.956;5.906;2024-02-28T04:37:16;25.85;;;12.18;;
29816;SDS011;16805;52.956;5.906;2024-02-28T04:40:26;29.63;;;13.98;;
29816;SDS011;16805;52.956;5.906;2024-02-28T04:43:14;24.25;;;12.00;;
29816;SDS011;16805;52.956;5.906;2024-02-28T04:45:56;26.45;;;12.88;;
29816;SDS011;16805;52.956;5.906;2024-02-28T04:52:07;29.83;;;11.52;;
29816;SDS011;16805;52.956;5.906;2024-02-28T04:54:44;22.77;;;11.75;;
29816;SDS011;16805;52.956;5.906;2024-02-28T04:57:27;30.92;;;13.38;;
29816;SDS011;16805;52.956;5.906;2024-02-28T05:06:15;22.58;;;11.45;;
29816;SDS011;16805;52.956;5.906;2024-02-28T05:09:25;24.30;;;12.23;;
29816;SDS011;16805;52.956;5.906;2024-02-28T05:12:39;23.45;;;10.98;;
29816;SDS011;16805;52.956;5.906;2024-02-28T05:19:00;24.33;;;10.13;;
29816;SDS011;16805;52.956;5.906;2024-02-28T05:24:55;30.08;;;13.30;;
29816;SDS011;16805;52.956;5.906;2024-02-28T05:36:59;25.00;;;11.65;;
29816;SDS011;16805;52.956;5.906;2024-02-28T05:39:37;29.42;;;12.07;;
29816;SDS011;16805;52.956;5.906;2024-02-28T05:42:43;24.38;;;12.02;;
29816;SDS011;16805;52.956;5.906;2024-02-28T05:45:31;23.60;;;13.15;;
29816;SDS011;16805;52.956;5.906;2024-02-28T05:52:18;28.08;;;13.15;;
29816;SDS011;16805;52.956;5.906;2024-02-28T05:55:41;23.63;;;13.02;;
29816;SDS011;16805;52.956;5.906;2024-02-28T06:01:45;29.13;;;12.80;;
29816;SDS011;16805;52.956;5.906;2024-02-28T06:04:55;30.83;;;14.13;;
29816;SDS011;16805;52.956;5.906;2024-02-28T06:11:33;22.23;;;11.80;;
29816;SDS011;16805;52.956;5.906;2024-02-28T06:15:00;21.30;;;10.07;;
29816;SDS011;16805;52.956;5.906;2024-02-28T06:18:15;29.73;;;13.82;;
29816;SDS011;16805;52.956;5.906;2024-02-28T06:38:29;25.70;;;13.02;;
29816;SDS011;16805;52.956;5.906;2024-02-28T06:48:30;30.83;;;10.95;;
29816;SDS011;16805;52.956;5.906;2024-02-28T10:02:31;25.02;;;13.82;;
29816;SDS011;16805;52.956;5.906;2024-02-28T10:05:57;25.08;;;14.85;;
29816;SDS011;16805;52.956;5.906;2024-02-28T10:09:41;30.80;;;13.68;;
29816;SDS011;16805;52.956;5.906;2024-02-28T10:13:22;26.92;;;13.98;;
29816;SDS011;16805;52.956;5.906;2024-02-28T10:42:57;29.95;;;14.40;;
29816;SDS011;16805;52.956;5.906;2024-02-28T10:45:33;26.92;;;14.40;;
29816;SDS011;16805;52.956;5.906;2024-02-28T10:48:17;21.83;;;13.32;;
29816;SDS011;16805;52.956;5.906;2024-02-28T10:50:53;29.08;;;14.05;;
29816;SDS011;16805;52.956;5.906;2024-02-28T10:53:41;24.83;;;13.77;;
29816;SDS011;16805;52.956;5.906;2024-02-28T10:56:26;22.08;;;13.68;;
29816;SDS011;16805;52.956;5.906;2024-02-28T10:59:12;24.15;;;14.02;;
29816;SDS011;16805;52.956;5.906;2024-02-28T11:02:03;25.85;;;16.40;;
29816;SDS011;16805;52.956;5.906;2024-02-28T11:04:58;21.85;;;12.73;;
29816;SDS011;16805;52.956;5.906;2024-02-28T11:07:30;22.38;;;13.57;;
29816;SDS011;16805;52.956;5.906;2024-02-28T11:10:30;21.58;;;12.80;;
29816;SDS011;16805;52.956;5.906;2024-02-28T11:13:21;22.10;;;12.63;;
29816;SDS011;16805;52.956;5.906;2024-02-28T11:15:53;21.13;;;12.90;;
29816;SDS011;16805;52.956;5.906;2024-02-28T11:18:23;26.92;;;13.07;;
29816;SDS011;16805;52.956;5.906;2024-02-28T11:21:22;19.55;;;13.07;;
29816;SDS011;16805;52.956;5.906;2024-02-28T11:24:09;17.58;;;13.30;;
29816;SDS011;16805;52.956;5.906;2024-02-28T11:27:21;24.75;;;12.88;;
29816;SDS011;16805;52.956;5.906;2024-02-28T11:37:10;25.67;;;12.77;;
29816;SDS011;16805;52.956;5.906;2024-02-28T11:39:51;21.10;;;12.63;;
29816;SDS011;16805;52.956;5.906;2024-02-28T11:42:39;20.05;;;13.10;;
29816;SDS011;16805;52.956;5.906;2024-02-28T11:45:49;22.42;;;12.18;;
29816;SDS011;16805;52.956;5.906;2024-02-28T11:48:34;26.13;;;13.60;;
29816;SDS011;16805;52.956;5.906;2024-02-28T13:28:40;15.30;;;12.13;;
29816;SDS011;16805;52.956;5.906;2024-02-28T13:32:08;24.77;;;12.93;;
29816;SDS011;16805;52.956;5.906;2024-02-28T14:17:17;19.13;;;13.68;;
29816;SDS011;16805;52.956;5.906;2024-02-28T14:20:21;18.23;;;13.00;;
29816;SDS011;16805;52.956;5.906;2024-02-28T14:26:04;19.88;;;13.82;;
29816;SDS011;16805;52.956;5.906;2024-02-28T14:28:47;17.20;;;12.87;;
29816;SDS011;16805;52.956;5.906;2024-02-28T14:31:31;20.65;;;12.05;;
29816;SDS011;16805;52.956;5.906;2024-02-28T14:34:09;19.38;;;14.15;;
29816;SDS011;16805;52.956;5.906;2024-02-28T14:37:06;15.35;;;11.95;;
29816;SDS011;16805;52.956;5.906;2024-02-28T14:40:06;21.13;;;12.45;;
29816;SDS011;16805;52.956;5.906;2024-02-28T14:42:42;12.68;;;10.18;;
29816;SDS011;16805;52.956;5.906;2024-02-28T14:45:12;18.67;;;13.93;;
29816;SDS011;16805;52.956;5.906;2024-02-28T14:51:40;16.17;;;12.30;;
29816;SDS011;16805;52.956;5.906;2024-02-28T14:54:14;19.50;;;14.13;;
29816;SDS011;16805;52.956;5.906;2024-02-28T14:56:47;22.42;;;12.57;;
29816;SDS011;16805;52.956;5.906;2024-02-28T14:59:20;19.20;;;14.90;;
29816;SDS011;16805;52.956;5.906;2024-02-28T15:01:55;15.13;;;12.65;;
29816;SDS011;16805;52.956;5.906;2024-02-28T15:04:31;13.10;;;11.57;;
29816;SDS011;16805;52.956;5.906;2024-02-28T15:07:10;20.20;;;13.38;;
29816;SDS011;16805;52.956;5.906;2024-02-28T15:09:40;19.27;;;14.38;;
29816;SDS011;16805;52.956;5.906;2024-02-28T15:12:14;23.15;;;15.10;;
29816;SDS011;16805;52.956;5.906;2024-02-28T15:14:51;31.63;;;16.13;;
29816;SDS011;16805;52.956;5.906;2024-02-28T15:17:25;22.00;;;15.05;;
29816;SDS011;16805;52.956;5.906;2024-02-28T15:20:01;33.27;;;16.03;;
29816;SDS011;16805;52.956;5.906;2024-02-28T18:18:30;37.30;;;19.65;;
29816;SDS011;16805;52.956;5.906;2024-02-28T18:37:48;30.20;;;17.42;;
29816;SDS011;16805;52.956;5.906;2024-02-28T20:28:29;41.47;;;19.52;;
29816;SDS011;16805;52.956;5.906;2024-02-28T20:44:23;34.65;;;16.92;;
29816;SDS011;16805;52.956;5.906;2024-02-28T23:34:19;15.40;;;10.80;;
29816;SDS011;16805;52.956;5.906;2024-02-28T23:36:46;14.30;;;10.57;;
29816;SDS011;16805;52.956;5.906;2024-02-28T23:39:11;15.60;;;10.95;;
29816;SDS011;16805;52.956;5.906;2024-02-28T23:41:38;15.55;;;9.15;;
29816;SDS011;16805;52.956;5.906;2024-02-28T23:44:08;12.75;;;9.80;;
29816;SDS011;16805;52.956;5.906;2024-02-28T23:46:34;13.20;;;10.00;;
29816;SDS011;16805;52.956;5.906;2024-02-28T23:49:00;17.52;;;11.95;;
29816;SDS011;16805;52.956;5.906;2024-02-28T23:51:27;11.95;;;8.27;;
29816;SDS011;16805;52.956;5.906;2024-02-28T23:53:53;11.30;;;9.20;;
29816;SDS011;16805;52.956;5.906;2024-02-28T23:59:44;15.02;;;10.50;;
